My Meet Scores
Kenya Washington, Gym Kinetics Gymnastics - MyMeetScores.com
Top100 | Top Teams | Upcoming Meets | Completed Meets | Latest | Add Scores | Help| Support | Bookmark and Share

Kenya Washington, Gym Kinetics Gymnastics
Personal Bests
LevelVault BarsBeamFloorAA
8.7008.900 7.8258.82534.250
49.2509.350 9.2259.20036.825
58.9009.100 9.3009.27536.375
69.4008.900 9.2509.17535.575
79.5758.925 9.3009.37536.450
Meet Scores
Date Meet Team Session Level Division Vault Bars Beam Floor AA
2013-03-15 2013 Illinois Level 6, 7 State Meet Gym Kinetics Gymnastics 5 7 Sr.C 9.350 11 8.400 20 8.100 29 9.350 9 35.200 22
2013-03-01 Champions Derby Classic Gym Kinetics Gymnastics 2B 7 L7: 13 to 14 9.050 6 8.650 6 7.800 12 9.150 2 34.650 10
2013-02-22 Midwest Open 2013 Gym Kinetics Gymnastics 10A 7 13 & up 9.275 8 7.150 15 8.200 14 8.975 12 33.600 15
2013-02-16 BIG Dream Classic 2013 Gym Kinetics Gymnastics 1B 7 Senior B 9.575 4 8.100 11 8.400 11 9.000 11T 35.075 9
2013-01-11 Circle Of Stars Gym Kinetics Gymnastics 7 13 9.350 5 8.625 8 8.650 4 9.025 7 35.650 4
2012-12-13 2012 Hawaiin Pineapple Classic Gym Kinetics Gymnastics 4 7 ages 13+ 9.250 3 8.525 4 9.300 1 9.375 1 36.450 1
2012-11-30 Ultimate Wish Classic 2012 Gym Kinetics Gymnastics 7 L7 Sr A S3 9.450 2 8.700 5 8.875 6 9.300 7 36.325 3
2012-11-09 2012 Illinois Judges Cup Gym Kinetics Gymnastics 4A 7 13+ 9.075 8 7.600 12 8.150 8 9.050 6 33.875 11
2012-03-16 2012 Illinois Level 6, 7 State Championships Gym Kinetics Gymnastics 8 7 Jr.A 9.375 9 8.925 17 7.000 24 8.950 11T 34.250 20
2012-02-25 Midwest Open 2012 Flipstar Gymnastics Academy 7B 7 Lvl 7: 12 9.225 9 8.900 9 7.350 21 9.175 9 34.650 17
2012-02-10 IGI Chicago Style Gymnastics Gym Kinetics Gymnastics 133 7 12 Yr Olds 9.025 10 8.850 3T 9.050 4T 9.275 2 36.200 2
2012-01-06 2012 St. Jude Invite Flipstar Gymnastics Academy 2 7 Junior 9.050 8 8.800 5 7.450 12 9.200 8 34.500 11
2011-12-15 2011 Hawaiian Pineapple Classic Flipstar Gymnastics Academy 6A 7 12 9.175 9 8.550 11T 7.400 10 8.900 5T 34.025 10
2011-11-18 2011 Thanksgiving Classic Gym Kinetics Gymnastics 1 7 Sr 12+ yrs 9.025 5 0.000 23 6.600 22 8.825 11 24.450 22
2011-03-25 2011 Illinois Level 6-9-10 State Meet Flipstar Gymnastics Academy 3 6 Jr.C 8.825 21 8.875 9 8.700 16 9.175 7 35.575 9
2011-03-04 Elgin Invite Flipstar Gymnastics Academy 6 6 11 8.600 5 8.900 3 8.850 6 8.700 9 35.050 4
2011-02-19 Big Dream Classic Gym Kinetics Gymnastics 5A 6 11 yrs 9.100 5 8.325 5 8.925 7 9.025 5 35.375 4
2011-02-11 IGI Chicago Style Gymnastics Meet Gym Kinetics Gymnastics 531 6 11 Yr Olds 8.950 4T 8.600 15T 7.750 28 8.500 17T 33.800 19
2011-01-21 Bravo Classic Flipstar Gymnastics Academy 5B 6 11-12 9.400 3 8.725 7 8.000 26 8.825 14 34.950 12
2011-01-08 Crossroads Classic Gym Kinetics Gymnastics 3B 6 Ch 8.100 7 8.500 3T 8.600 7 8.725 4 33.925 5
2010-03-13 2010 Illinois Level 6 and 7 State Championships Gym Kinetics Gymnastics 6 Youth.C 9.000 21 7.850 23 9.250 10 9.175 7 35.275 16
2010-02-20 BIG Dream Classic 2010 Flipstar Gymnastics Academy 4A 6 10 8.650 17 7.950 25 8.700 19 8.725 22 34.025 22
2010-02-12 IGI Chicago Style Gymnastics Meet Flipstar Gymnastics Academy 511 6 10 & Under 8.250 31T 8.400 14 8.700 18 7.650 29T 33.000 24T
2010-01-29 Wisconsin Dells Gymnastics Vacation Classic Flipstar Gymnastics Academy 7A,7B 6 10 & under 8.200 10 8.700 2 8.050 10 8.675 9 33.625 8
2010-01-09 Crossroads Classic 2010 Flipstar Gymnastics Academy All Sessions Combined 6 Jr A 8.600 9T 8.200 12T 9.000 10 8.750 10T 34.550 12
2009-12-04 Ultimate Wish Classic Flipstar Gymnastics Academy 1 6 Ch7-11 8.350 27T 8.550 9T 8.925 16T 8.775 21 34.600 11
2009-11-13 2009 North Judges Cup Gym Kinetics Sports Complex 7B 6 7-10 8.750 20 7.400 30 8.550 17 8.675 17 33.375 23
2009-04-03 2009 Illinois Level 5 State Championships Gym Kinetics Gymnastics 2 5 ChildE 8.900 10 8.900 15 9.300 6 9.275 9 36.375 11
2009-03-07 Midwest Open 2009 Gym Kinetics Sports Complex 3A 5 9 8.700 2 8.700 3 9.000 1 9.075 2 35.475 2
2009-02-06 IGI Chicago Style Gymnastics Meet Gym Kinetics Gymnastics 631 5 9 and Under 8.000 35T 9.100 15T 9.250 4 8.425 19 34.775 17
2009-01-23 2009 Bravo Classic Gym Kinetics Gymnastics 6B 5 9yrs 8.900 10 8.800 11 8.900 13 9.000 9 35.600 8
2009-01-09 Twistars Invitational 2009 Midnight Madness Gym Kinetics Sports Complex 5f 5 9 8.700 12 7.550 14 8.725 6 9.000 9 33.975 11
2008-12-13 St Nick Invite Gym Kinetics Sports Complex 6 5 All 8.300 35 8.600 23 8.800 21 8.650 32 34.350 29
2008-11-22 Thanksgiving Classic Gym Kinetics Gymnastics 1 5 Ch 9 6.400 19 7.400 9T 8.675 6 7.800 13T 30.275 15
2008-03-07 Flip'r Meet 2008 Flipstar Gymnastics Academy 2 4 6-8yrs 9.250 4 9.225 5 9.150 5 9.150 10 36.775 5
2008-02-09 For Love or Money 2008 Gym Kinetics Gymnastics LoveGym 4 8 9.050 80T 9.000 23T 8.750 30T 9.175 41T 35.975 36
2008-02-09 For Love or Money 2008 Gym Kinetics Gymnastics MoneyGym 4 8 0.000 1T 0.000 1T 0.000 1T 0.000 1T 0.000 1T
2008-01-25 2008 Bravo Classic Gym Kinetics Gymnastics 1B 4 8yrs 9.050 13 9.350 5 9.225 3 9.200 4 36.825 4
2007-12-07 St. Nick Invite Flipstar Gymnastics Academy 16 4 All 9.125 14 9.150 6 8.600 17 9.000 15 35.875 13

www.lazysuits.com